sensor_id;sensor_type;location;lat;lon;timestamp;pressure;altitude;pressure_sealevel;temperature;humidity
15750;BME280;7976;52.526;13.326;2022-09-09T00:02:19;100579.31;;;16.53;100.00
15750;BME280;7976;52.526;13.326;2022-09-09T00:04:58;100580.28;;;16.52;100.00
15750;BME280;7976;52.526;13.326;2022-09-09T00:07:40;100581.97;;;16.53;100.00
15750;BME280;7976;52.526;13.326;2022-09-09T00:10:19;100576.69;;;16.53;100.00
15750;BME280;7976;52.526;13.326;2022-09-09T00:13:02;100583.78;;;16.53;100.00
15750;BME280;7976;52.526;13.326;2022-09-09T00:15:41;100582.16;;;16.50;100.00
15750;BME280;7976;52.526;13.326;2022-09-09T00:18:20;100590.19;;;16.49;100.00
15750;BME280;7976;52.526;13.326;2022-09-09T00:20:57;100577.09;;;16.47;100.00
15750;BME280;7976;52.526;13.326;2022-09-09T00:23:34;100576.22;;;16.47;100.00
15750;BME280;7976;52.526;13.326;2022-09-09T00:26:14;100580.81;;;16.43;100.00
15750;BME280;7976;52.526;13.326;2022-09-09T00:28:55;100571.22;;;16.42;100.00
15750;BME280;7976;52.526;13.326;2022-09-09T00:31:29;100573.00;;;16.42;100.00
15750;BME280;7976;52.526;13.326;2022-09-09T00:34:03;100573.94;;;16.41;100.00
15750;BME280;7976;52.526;13.326;2022-09-09T00:36:35;100564.22;;;16.41;100.00
15750;BME280;7976;52.526;13.326;2022-09-09T00:39:05;100571.31;;;16.41;100.00
15750;BME280;7976;52.526;13.326;2022-09-09T00:41:50;100566.13;;;16.39;100.00
15750;BME280;7976;52.526;13.326;2022-09-09T00:44:30;100563.59;;;16.38;100.00
15750;BME280;7976;52.526;13.326;2022-09-09T00:47:21;100563.59;;;16.38;100.00
15750;BME280;7976;52.526;13.326;2022-09-09T00:50:05;100563.66;;;16.36;100.00
15750;BME280;7976;52.526;13.326;2022-09-09T00:52:54;100567.25;;;16.35;100.00
15750;BME280;7976;52.526;13.326;2022-09-09T00:55:34;100573.41;;;16.36;100.00
15750;BME280;7976;52.526;13.326;2022-09-09T00:58:07;100571.88;;;16.31;100.00
15750;BME280;7976;52.526;13.326;2022-09-09T01:00:42;100570.09;;;16.32;100.00
15750;BME280;7976;52.526;13.326;2022-09-09T01:03:34;100572.75;;;16.32;100.00
15750;BME280;7976;52.526;13.326;2022-09-09T01:06:15;100566.69;;;16.30;100.00
15750;BME280;7976;52.526;13.326;2022-09-09T01:09:05;100570.19;;;16.30;100.00
15750;BME280;7976;52.526;13.326;2022-09-09T01:11:49;100583.41;;;16.30;100.00
15750;BME280;7976;52.526;13.326;2022-09-09T01:14:38;100583.50;;;16.29;100.00
15750;BME280;7976;52.526;13.326;2022-09-09T01:17:15;100580.09;;;16.27;100.00
15750;BME280;7976;52.526;13.326;2022-09-09T01:20:02;100576.72;;;16.25;100.00
15750;BME280;7976;52.526;13.326;2022-09-09T01:22:42;100576.72;;;16.25;100.00
15750;BME280;7976;52.526;13.326;2022-09-09T01:25:29;100571.44;;;16.25;100.00
15750;BME280;7976;52.526;13.326;2022-09-09T01:28:11;100570.66;;;16.23;100.00
15750;BME280;7976;52.526;13.326;2022-09-09T01:30:41;100576.91;;;16.22;100.00
15750;BME280;7976;52.526;13.326;2022-09-09T01:33:16;100576.16;;;16.20;100.00
15750;BME280;7976;52.526;13.326;2022-09-09T01:35:50;100571.06;;;16.17;100.00
15750;BME280;7976;52.526;13.326;2022-09-09T01:38:23;100570.31;;;16.15;100.00
15750;BME280;7976;52.526;13.326;2022-09-09T01:40:53;100575.59;;;16.15;100.00
15750;BME280;7976;52.526;13.326;2022-09-09T01:43:28;100572.09;;;16.14;100.00
15750;BME280;7976;52.526;13.326;2022-09-09T01:46:00;100571.28;;;16.14;100.00
15750;BME280;7976;52.526;13.326;2022-09-09T01:48:29;100569.56;;;16.13;100.00
15750;BME280;7976;52.526;13.326;2022-09-09T01:51:08;100572.19;;;16.13;100.00
15750;BME280;7976;52.526;13.326;2022-09-09T01:53:37;100573.91;;;16.14;100.00
15750;BME280;7976;52.526;13.326;2022-09-09T01:56:21;100572.28;;;16.11;100.00
15750;BME280;7976;52.526;13.326;2022-09-09T01:59:08;100568.91;;;16.09;100.00
15750;BME280;7976;52.526;13.326;2022-09-09T02:01:53;100568.06;;;16.09;100.00
15750;BME280;7976;52.526;13.326;2022-09-09T02:04:37;100576.16;;;16.06;100.00
15750;BME280;7976;52.526;13.326;2022-09-09T02:07:37;100571.94;;;16.03;100.00
15750;BME280;7976;52.526;13.326;2022-09-09T02:10:16;100569.38;;;16.02;100.00
15750;BME280;7976;52.526;13.326;2022-09-09T02:12:59;100580.88;;;16.01;100.00
15750;BME280;7976;52.526;13.326;2022-09-09T02:15:35;100583.44;;;16.02;100.00
15750;BME280;7976;52.526;13.326;2022-09-09T02:18:10;100581.63;;;16.03;100.00
15750;BME280;7976;52.526;13.326;2022-09-09T02:20:41;100592.19;;;16.03;100.00
15750;BME280;7976;52.526;13.326;2022-09-09T02:23:12;100586.91;;;16.03;100.00
15750;BME280;7976;52.526;13.326;2022-09-09T02:25:41;100586.09;;;16.02;100.00
15750;BME280;7976;52.526;13.326;2022-09-09T02:28:20;100592.38;;;16.00;100.00
15750;BME280;7976;52.526;13.326;2022-09-09T02:30:51;100582.88;;;15.97;100.00
15750;BME280;7976;52.526;13.326;2022-09-09T02:33:26;100587.31;;;15.97;100.00
15750;BME280;7976;52.526;13.326;2022-09-09T02:35:56;100579.47;;;15.95;100.00
15750;BME280;7976;52.526;13.326;2022-09-09T02:38:36;100585.69;;;15.94;100.00
15750;BME280;7976;52.526;13.326;2022-09-09T02:41:09;100581.47;;;15.92;100.00
15750;BME280;7976;52.526;13.326;2022-09-09T02:43:36;100581.56;;;15.90;100.00
15750;BME280;7976;52.526;13.326;2022-09-09T02:46:27;100580.69;;;15.90;100.00
15750;BME280;7976;52.526;13.326;2022-09-09T02:49:03;100584.47;;;15.86;100.00
15750;BME280;7976;52.526;13.326;2022-09-09T02:51:49;100573.16;;;15.84;100.00
15750;BME280;7976;52.526;13.326;2022-09-09T02:54:27;100584.66;;;15.83;100.00
15750;BME280;7976;52.526;13.326;2022-09-09T02:57:04;100581.25;;;15.81;100.00
15750;BME280;7976;52.526;13.326;2022-09-09T02:59:37;100577.03;;;15.78;100.00
15750;BME280;7976;52.526;13.326;2022-09-09T03:02:06;100577.97;;;15.77;100.00
15750;BME280;7976;52.526;13.326;2022-09-09T03:04:35;100575.34;;;15.77;100.00
15750;BME280;7976;52.526;13.326;2022-09-09T03:07:04;100582.41;;;15.77;100.00
15750;BME280;7976;52.526;13.326;2022-09-09T03:09:31;100582.50;;;15.75;100.00
15750;BME280;7976;52.526;13.326;2022-09-09T03:11:59;100586.06;;;15.74;100.00
15750;BME280;7976;52.526;13.326;2022-09-09T03:14:27;100592.19;;;15.75;100.00
15750;BME280;7976;52.526;13.326;2022-09-09T03:16:55;100586.16;;;15.73;100.00
15750;BME280;7976;52.526;13.326;2022-09-09T03:19:25;100594.06;;;15.73;100.00
15750;BME280;7976;52.526;13.326;2022-09-09T03:21:53;100597.56;;;15.73;100.00
15750;BME280;7976;52.526;13.326;2022-09-09T03:24:20;100610.66;;;15.75;100.00
15750;BME280;7976;52.526;13.326;2022-09-09T03:26:48;100609.91;;;15.73;100.00
15750;BME280;7976;52.526;13.326;2022-09-09T03:29:17;100610.75;;;15.73;100.00
15750;BME280;7976;52.526;13.326;2022-09-09T03:31:45;100613.41;;;15.73;100.00
15750;BME280;7976;52.526;13.326;2022-09-09T03:34:12;100608.22;;;15.72;100.00
15750;BME280;7976;52.526;13.326;2022-09-09T03:36:41;100600.41;;;15.70;100.00
15750;BME280;7976;52.526;13.326;2022-09-09T03:39:08;100605.69;;;15.70;100.00
15750;BME280;7976;52.526;13.326;2022-09-09T03:41:35;100606.44;;;15.72;100.00
15750;BME280;7976;52.526;13.326;2022-09-09T03:44:03;100608.13;;;15.73;100.00
15750;BME280;7976;52.526;13.326;2022-09-09T03:46:35;100607.34;;;15.71;100.00
15750;BME280;7976;52.526;13.326;2022-09-09T03:49:03;100613.69;;;15.69;100.00
15750;BME280;7976;52.526;13.326;2022-09-09T03:51:31;100610.28;;;15.67;100.00
15750;BME280;7976;52.526;13.326;2022-09-09T03:54:04;100613.84;;;15.66;100.00
15750;BME280;7976;52.526;13.326;2022-09-09T03:56:34;100613.84;;;15.66;100.00
15750;BME280;7976;52.526;13.326;2022-09-09T03:59:01;100617.44;;;15.65;100.00
15750;BME280;7976;52.526;13.326;2022-09-09T04:01:29;100611.50;;;15.61;100.00
15750;BME280;7976;52.526;13.326;2022-09-09T04:03:56;100619.50;;;15.60;100.00
15750;BME280;7976;52.526;13.326;2022-09-09T04:06:24;100616.09;;;15.58;100.00
15750;BME280;7976;52.526;13.326;2022-09-09T04:08:51;100609.22;;;15.55;100.00
15750;BME280;7976;52.526;13.326;2022-09-09T04:11:20;100607.63;;;15.53;100.00
15750;BME280;7976;52.526;13.326;2022-09-09T04:13:50;100605.94;;;15.52;100.00
15750;BME280;7976;52.526;13.326;2022-09-09T04:16:18;100605.94;;;15.52;100.00
15750;BME280;7976;52.526;13.326;2022-09-09T04:18:46;100598.94;;;15.51;100.00
15750;BME280;7976;52.526;13.326;2022-09-09T04:21:15;100603.47;;;15.49;99.98
15750;BME280;7976;52.526;13.326;2022-09-09T04:23:43;100607.13;;;15.46;99.76
15750;BME280;7976;52.526;13.326;2022-09-09T04:26:10;100609.00;;;15.44;99.88
15750;BME280;7976;52.526;13.326;2022-09-09T04:28:39;100610.91;;;15.42;99.71
15750;BME280;7976;52.526;13.326;2022-09-09T04:31:16;100617.00;;;15.43;99.76
15750;BME280;7976;52.526;13.326;2022-09-09T04:33:44;100617.88;;;15.43;99.70
15750;BME280;7976;52.526;13.326;2022-09-09T04:36:12;100617.78;;;15.45;99.91
15750;BME280;7976;52.526;13.326;2022-09-09T04:38:39;100616.75;;;15.47;99.70
15750;BME280;7976;52.526;13.326;2022-09-09T04:41:06;100615.91;;;15.47;99.57
15750;BME280;7976;52.526;13.326;2022-09-09T04:43:38;100620.22;;;15.48;99.76
15750;BME280;7976;52.526;13.326;2022-09-09T04:46:07;100623.72;;;15.48;99.83
15750;BME280;7976;52.526;13.326;2022-09-09T04:48:34;100620.13;;;15.49;99.57
15750;BME280;7976;52.526;13.326;2022-09-09T04:51:05;100623.63;;;15.50;99.51
15750;BME280;7976;52.526;13.326;2022-09-09T04:53:34;100623.63;;;15.50;99.20
15750;BME280;7976;52.526;13.326;2022-09-09T04:56:02;100625.31;;;15.51;99.33
15750;BME280;7976;52.526;13.326;2022-09-09T04:58:32;100637.59;;;15.52;99.38
15750;BME280;7976;52.526;13.326;2022-09-09T05:01:06;100636.53;;;15.54;98.94
15750;BME280;7976;52.526;13.326;2022-09-09T05:03:35;100646.06;;;15.57;99.21
15750;BME280;7976;52.526;13.326;2022-09-09T05:06:08;100637.03;;;15.61;99.00
15750;BME280;7976;52.526;13.326;2022-09-09T05:08:37;100645.59;;;15.64;99.02
15750;BME280;7976;52.526;13.326;2022-09-09T05:11:13;100647.22;;;15.67;98.69
15750;BME280;7976;52.526;13.326;2022-09-09T05:13:40;100640.91;;;15.69;98.74
15750;BME280;7976;52.526;13.326;2022-09-09T05:16:08;100644.41;;;15.70;98.28
15750;BME280;7976;52.526;13.326;2022-09-09T05:18:36;100643.44;;;15.71;98.34
15750;BME280;7976;52.526;13.326;2022-09-09T05:21:04;100641.56;;;15.73;98.06
15750;BME280;7976;52.526;13.326;2022-09-09T05:23:31;100632.72;;;15.74;97.87
15750;BME280;7976;52.526;13.326;2022-09-09T05:26:00;100638.75;;;15.76;98.08
15750;BME280;7976;52.526;13.326;2022-09-09T05:28:28;100636.78;;;15.79;97.45
15750;BME280;7976;52.526;13.326;2022-09-09T05:31:01;100641.03;;;15.82;97.75
15750;BME280;7976;52.526;13.326;2022-09-09T05:33:32;100633.88;;;15.84;97.86
15750;BME280;7976;52.526;13.326;2022-09-09T05:36:01;100642.38;;;15.89;97.60
15750;BME280;7976;52.526;13.326;2022-09-09T05:38:30;100638.56;;;15.93;97.34
15750;BME280;7976;52.526;13.326;2022-09-09T05:40:58;100644.63;;;15.95;97.33
15750;BME280;7976;52.526;13.326;2022-09-09T05:43:26;100639.34;;;15.95;96.95
15750;BME280;7976;52.526;13.326;2022-09-09T05:46:03;100637.47;;;15.97;97.10
15750;BME280;7976;52.526;13.326;2022-09-09T05:48:35;100635.69;;;15.97;96.76
15750;BME280;7976;52.526;13.326;2022-09-09T05:51:04;100639.06;;;15.99;97.24
15750;BME280;7976;52.526;13.326;2022-09-09T05:53:32;100636.31;;;16.01;97.19
15750;BME280;7976;52.526;13.326;2022-09-09T05:56:02;100649.34;;;16.04;96.85
15750;BME280;7976;52.526;13.326;2022-09-09T05:58:31;100642.16;;;16.06;97.04
15750;BME280;7976;52.526;13.326;2022-09-09T06:01:02;100649.06;;;16.08;97.39
15750;BME280;7976;52.526;13.326;2022-09-09T06:03:35;100654.91;;;16.13;97.28
15750;BME280;7976;52.526;13.326;2022-09-09T06:06:05;100651.22;;;16.16;96.97
15750;BME280;7976;52.526;13.326;2022-09-09T06:08:33;100653.59;;;16.20;96.69
15750;BME280;7976;52.526;13.326;2022-09-09T06:11:06;100662.19;;;16.24;96.27
15750;BME280;7976;52.526;13.326;2022-09-09T06:13:34;100669.16;;;16.25;96.52
15750;BME280;7976;52.526;13.326;2022-09-09T06:16:03;100672.56;;;16.27;95.89
15750;BME280;7976;52.526;13.326;2022-09-09T06:18:31;100671.41;;;16.31;96.10
15750;BME280;7976;52.526;13.326;2022-09-09T06:21:01;100667.63;;;16.35;95.61
15750;BME280;7976;52.526;13.326;2022-09-09T06:23:30;100669.25;;;16.38;95.87
15750;BME280;7976;52.526;13.326;2022-09-09T06:26:06;100667.34;;;16.40;94.96
15750;BME280;7976;52.526;13.326;2022-09-09T06:28:34;100663.69;;;16.42;95.00
15750;BME280;7976;52.526;13.326;2022-09-09T06:31:04;100666.13;;;16.45;95.06
15750;BME280;7976;52.526;13.326;2022-09-09T06:33:34;100665.03;;;16.49;94.70
15750;BME280;7976;52.526;13.326;2022-09-09T06:36:03;100671.69;;;16.55;94.50
15750;BME280;7976;52.526;13.326;2022-09-09T06:38:31;100672.34;;;16.58;94.54
15750;BME280;7976;52.526;13.326;2022-09-09T06:40:59;100675.84;;;16.59;94.18
15750;BME280;7976;52.526;13.326;2022-09-09T06:43:28;100685.47;;;16.60;93.75
15750;BME280;7976;52.526;13.326;2022-09-09T06:45:59;100684.53;;;16.61;93.73
15750;BME280;7976;52.526;13.326;2022-09-09T06:48:27;100687.09;;;16.62;93.47
15750;BME280;7976;52.526;13.326;2022-09-09T06:51:03;100680.75;;;16.65;93.23
15750;BME280;7976;52.526;13.326;2022-09-09T06:53:32;100686.69;;;16.68;93.20
15750;BME280;7976;52.526;13.326;2022-09-09T06:56:00;100683.56;;;16.76;93.49
15750;BME280;7976;52.526;13.326;2022-09-09T06:58:29;100680.44;;;16.83;92.90
15750;BME280;7976;52.526;13.326;2022-09-09T07:01:05;100672.84;;;16.91;92.90
15750;BME280;7976;52.526;13.326;2022-09-09T07:03:34;100677.56;;;17.00;92.85
15750;BME280;7976;52.526;13.326;2022-09-09T07:06:02;100672.63;;;17.08;92.95
15750;BME280;7976;52.526;13.326;2022-09-09T07:08:29;100675.59;;;17.16;92.17
15750;BME280;7976;52.526;13.326;2022-09-09T07:11:04;100675.22;;;17.22;92.00
15750;BME280;7976;52.526;13.326;2022-09-09T07:13:34;100675.56;;;17.30;91.63
15750;BME280;7976;52.526;13.326;2022-09-09T07:16:05;100679.50;;;17.37;91.37
15750;BME280;7976;52.526;13.326;2022-09-09T07:18:33;100686.19;;;17.43;91.31
15750;BME280;7976;52.526;13.326;2022-09-09T07:21:02;100675.00;;;17.52;90.80
15750;BME280;7976;52.526;13.326;2022-09-09T07:23:30;100676.94;;;17.63;90.41
15750;BME280;7976;52.526;13.326;2022-09-09T07:25:58;100678.03;;;17.73;89.98
15750;BME280;7976;52.526;13.326;2022-09-09T07:28:26;100677.59;;;17.79;89.74
15750;BME280;7976;52.526;13.326;2022-09-09T07:30:55;100684.94;;;17.88;88.99
15750;BME280;7976;52.526;13.326;2022-09-09T07:33:23;100682.50;;;17.97;88.81
15750;BME280;7976;52.526;13.326;2022-09-09T07:35:51;100681.75;;;18.08;88.62
15750;BME280;7976;52.526;13.326;2022-09-09T07:38:20;100684.41;;;18.20;88.04
15750;BME280;7976;52.526;13.326;2022-09-09T07:40:49;100690.66;;;18.32;87.77
15750;BME280;7976;52.526;13.326;2022-09-09T07:43:16;100688.03;;;18.44;87.20
15750;BME280;7976;52.526;13.326;2022-09-09T07:45:44;100693.94;;;18.60;86.86
15750;BME280;7976;52.526;13.326;2022-09-09T07:48:11;100690.53;;;18.71;86.36
15750;BME280;7976;52.526;13.326;2022-09-09T07:50:38;100697.94;;;18.79;85.62
15750;BME280;7976;52.526;13.326;2022-09-09T07:53:05;100702.78;;;18.85;85.24
15750;BME280;7976;52.526;13.326;2022-09-09T07:55:33;100700.88;;;18.87;85.23
15750;BME280;7976;52.526;13.326;2022-09-09T07:58:00;100698.88;;;18.90;84.84
15750;BME280;7976;52.526;13.326;2022-09-09T08:00:27;100701.16;;;18.95;84.81
15750;BME280;7976;52.526;13.326;2022-09-09T08:02:56;100698.19;;;18.99;84.72
15750;BME280;7976;52.526;13.326;2022-09-09T08:05:23;100696.25;;;19.01;84.18
15750;BME280;7976;52.526;13.326;2022-09-09T08:07:50;100699.31;;;19.08;84.04
15750;BME280;7976;52.526;13.326;2022-09-09T08:10:17;100696.44;;;19.11;83.42
15750;BME280;7976;52.526;13.326;2022-09-09T08:12:48;100713.97;;;19.13;83.19
15750;BME280;7976;52.526;13.326;2022-09-09T08:15:15;100710.13;;;19.17;83.02
15750;BME280;7976;52.526;13.326;2022-09-09T08:17:43;100713.59;;;19.18;82.81
15750;BME280;7976;52.526;13.326;2022-09-09T08:20:10;100716.88;;;19.21;83.02
15750;BME280;7976;52.526;13.326;2022-09-09T08:22:37;100712.09;;;19.26;82.68
15750;BME280;7976;52.526;13.326;2022-09-09T08:25:05;100707.31;;;19.31;82.01
15750;BME280;7976;52.526;13.326;2022-09-09T08:27:35;100708.38;;;19.29;81.79
15750;BME280;7976;52.526;13.326;2022-09-09T08:30:06;100708.69;;;19.24;82.01
15750;BME280;7976;52.526;13.326;2022-09-09T08:32:34;100708.19;;;19.19;81.99
15750;BME280;7976;52.526;13.326;2022-09-09T08:35:01;100712.78;;;19.17;81.48
15750;BME280;7976;52.526;13.326;2022-09-09T08:37:29;100716.03;;;19.21;82.18
15750;BME280;7976;52.526;13.326;2022-09-09T08:39:57;100719.94;;;19.28;81.38
15750;BME280;7976;52.526;13.326;2022-09-09T08:42:38;100707.44;;;19.30;81.19
15750;BME280;7976;52.526;13.326;2022-09-09T08:45:29;100720.47;;;19.33;81.10
15750;BME280;7976;52.526;13.326;2022-09-09T08:48:23;100717.72;;;19.34;80.98
15750;BME280;7976;52.526;13.326;2022-09-09T08:50:53;100717.09;;;19.31;81.13
15750;BME280;7976;52.526;13.326;2022-09-09T08:53:36;100716.25;;;19.30;81.26
15750;BME280;7976;52.526;13.326;2022-09-09T08:56:13;100718.13;;;19.28;80.66
15750;BME280;7976;52.526;13.326;2022-09-09T08:58:55;100727.28;;;19.24;80.81
15750;BME280;7976;52.526;13.326;2022-09-09T09:02:00;100726.44;;;19.24;80.79
15750;BME280;7976;52.526;13.326;2022-09-09T09:04:56;100721.03;;;19.25;80.40
15750;BME280;7976;52.526;13.326;2022-09-09T09:07:43;100724.31;;;19.29;80.62
15750;BME280;7976;52.526;13.326;2022-09-09T09:10:33;100724.97;;;19.32;80.76
15750;BME280;7976;52.526;13.326;2022-09-09T09:13:12;100715.78;;;19.36;80.84
15750;BME280;7976;52.526;13.326;2022-09-09T09:15:44;100722.34;;;19.43;80.80
15750;BME280;7976;52.526;13.326;2022-09-09T09:18:15;100728.06;;;19.50;80.69
15750;BME280;7976;52.526;13.326;2022-09-09T09:20:55;100727.38;;;19.59;80.36
15750;BME280;7976;52.526;13.326;2022-09-09T09:23:34;100720.06;;;19.73;79.89
15750;BME280;7976;52.526;13.326;2022-09-09T09:26:09;100718.28;;;19.85;79.29
15750;BME280;7976;52.526;13.326;2022-09-09T09:28:40;100722.69;;;19.97;79.42
15750;BME280;7976;52.526;13.326;2022-09-09T09:31:13;100713.78;;;20.09;78.27
15750;BME280;7976;52.526;13.326;2022-09-09T09:33:49;100719.75;;;20.24;77.68
15750;BME280;7976;52.526;13.326;2022-09-09T09:36:18;100709.22;;;20.33;77.26
15750;BME280;7976;52.526;13.326;2022-09-09T09:38:57;100720.22;;;20.40;77.16
15750;BME280;7976;52.526;13.326;2022-09-09T09:41:33;100716.63;;;20.41;76.50
15750;BME280;7976;52.526;13.326;2022-09-09T09:44:02;100720.22;;;20.40;75.75
15750;BME280;7976;52.526;13.326;2022-09-09T09:46:31;100715.41;;;20.45;75.76
15750;BME280;7976;52.526;13.326;2022-09-09T09:49:12;100714.94;;;20.51;75.36
15750;BME280;7976;52.526;13.326;2022-09-09T09:51:40;100717.97;;;20.57;75.41
15750;BME280;7976;52.526;13.326;2022-09-09T09:54:27;100721.97;;;20.63;75.08
15750;BME280;7976;52.526;13.326;2022-09-09T09:57:09;100712.75;;;20.67;75.17
15750;BME280;7976;52.526;13.326;2022-09-09T09:59:37;100713.97;;;20.74;75.13
15750;BME280;7976;52.526;13.326;2022-09-09T10:02:20;100705.25;;;20.83;74.49
15750;BME280;7976;52.526;13.326;2022-09-09T10:05:04;100716.38;;;20.88;74.67
15750;BME280;7976;52.526;13.326;2022-09-09T10:07:34;100715.75;;;20.95;74.80
15750;BME280;7976;52.526;13.326;2022-09-09T10:10:04;100713.94;;;20.96;74.60
15750;BME280;7976;52.526;13.326;2022-09-09T10:12:44;100714.19;;;20.93;74.69
15750;BME280;7976;52.526;13.326;2022-09-09T10:15:32;100718.91;;;20.89;74.13
15750;BME280;7976;52.526;13.326;2022-09-09T10:18:19;100714.19;;;20.93;74.54
15750;BME280;7976;52.526;13.326;2022-09-09T10:21:02;100706.19;;;21.04;73.92
15750;BME280;7976;52.526;13.326;2022-09-09T10:23:54;100706.16;;;21.15;73.20
15750;BME280;7976;52.526;13.326;2022-09-09T10:26:38;100715.00;;;21.27;73.31
15750;BME280;7976;52.526;13.326;2022-09-09T10:29:34;100715.09;;;21.36;72.37
15750;BME280;7976;52.526;13.326;2022-09-09T10:35:23;100716.50;;;21.40;71.77
15750;BME280;7976;52.526;13.326;2022-09-09T10:41:16;100719.41;;;21.37;72.57
15750;BME280;7976;52.526;13.326;2022-09-09T10:44:23;100718.63;;;21.57;71.97
15750;BME280;7976;52.526;13.326;2022-09-09T10:47:23;100719.41;;;21.69;71.74
15750;BME280;7976;52.526;13.326;2022-09-09T10:53:27;100712.66;;;21.65;71.65
15750;BME280;7976;52.526;13.326;2022-09-09T10:56:06;100717.47;;;21.71;71.83
15750;BME280;7976;52.526;13.326;2022-09-09T10:58:39;100717.84;;;21.77;71.18
15750;BME280;7976;52.526;13.326;2022-09-09T11:01:16;100718.03;;;21.85;70.24
15750;BME280;7976;52.526;13.326;2022-09-09T11:03:54;100714.88;;;21.91;70.09
15750;BME280;7976;52.526;13.326;2022-09-09T11:06:29;100720.53;;;21.98;70.02
15750;BME280;7976;52.526;13.326;2022-09-09T11:09:02;100714.06;;;22.00;69.87
15750;BME280;7976;52.526;13.326;2022-09-09T11:11:37;100706.78;;;22.02;69.17
15750;BME280;7976;52.526;13.326;2022-09-09T11:14:12;100710.56;;;22.00;68.81
15750;BME280;7976;52.526;13.326;2022-09-09T11:16:45;100709.59;;;22.01;68.83
15750;BME280;7976;52.526;13.326;2022-09-09T11:19:21;100715.78;;;22.01;68.44
15750;BME280;7976;52.526;13.326;2022-09-09T11:21:53;100713.63;;;21.95;68.84
15750;BME280;7976;52.526;13.326;2022-09-09T11:24:31;100713.28;;;21.89;69.00
15750;BME280;7976;52.526;13.326;2022-09-09T11:27:06;100708.53;;;21.92;69.24
15750;BME280;7976;52.526;13.326;2022-09-09T11:30:24;100706.28;;;21.88;69.21
15750;BME280;7976;52.526;13.326;2022-09-09T11:33:27;100705.94;;;21.81;69.56
15750;BME280;7976;52.526;13.326;2022-09-09T11:36:35;100701.53;;;21.91;69.12
15750;BME280;7976;52.526;13.326;2022-09-09T11:39:37;100702.91;;;22.06;68.72
15750;BME280;7976;52.526;13.326;2022-09-09T11:42:17;100716.16;;;22.17;67.68
15750;BME280;7976;52.526;13.326;2022-09-09T11:44:45;100714.38;;;22.27;66.80
15750;BME280;7976;52.526;13.326;2022-09-09T11:47:26;100701.66;;;22.40;66.01
15750;BME280;7976;52.526;13.326;2022-09-09T11:50:07;100704.53;;;22.49;65.65
15750;BME280;7976;52.526;13.326;2022-09-09T11:52:42;100704.25;;;22.52;64.68
15750;BME280;7976;52.526;13.326;2022-09-09T11:55:26;100689.03;;;22.42;64.78
15750;BME280;7976;52.526;13.326;2022-09-09T11:57:58;100687.34;;;22.32;64.90
15750;BME280;7976;52.526;13.326;2022-09-09T12:00:35;100685.94;;;22.37;64.88
15750;BME280;7976;52.526;13.326;2022-09-09T12:03:04;100678.69;;;22.49;64.60
15750;BME280;7976;52.526;13.326;2022-09-09T12:05:41;100682.13;;;22.61;64.68
15750;BME280;7976;52.526;13.326;2022-09-09T12:08:15;100682.63;;;22.75;64.35
15750;BME280;7976;52.526;13.326;2022-09-09T12:10:54;100684.31;;;22.86;64.44
15750;BME280;7976;52.526;13.326;2022-09-09T12:13:24;100686.97;;;22.86;64.55
15750;BME280;7976;52.526;13.326;2022-09-09T12:15:54;100681.91;;;22.83;64.85
15750;BME280;7976;52.526;13.326;2022-09-09T12:18:24;100669.28;;;22.85;64.34
15750;BME280;7976;52.526;13.326;2022-09-09T12:21:00;100667.34;;;22.87;64.67
15750;BME280;7976;52.526;13.326;2022-09-09T12:23:43;100669.00;;;22.78;64.74
15750;BME280;7976;52.526;13.326;2022-09-09T12:26:28;100666.44;;;22.67;64.16
15750;BME280;7976;52.526;13.326;2022-09-09T12:29:11;100649.84;;;22.64;64.21
15750;BME280;7976;52.526;13.326;2022-09-09T12:31:46;100661.22;;;22.66;64.42
15750;BME280;7976;52.526;13.326;2022-09-09T12:34:28;100658.53;;;22.66;63.99
15750;BME280;7976;52.526;13.326;2022-09-09T12:37:04;100665.00;;;22.63;63.88
15750;BME280;7976;52.526;13.326;2022-09-09T12:39:38;100659.09;;;22.60;63.86
15750;BME280;7976;52.526;13.326;2022-09-09T12:42:18;100652.34;;;22.56;63.78
15750;BME280;7976;52.526;13.326;2022-09-09T12:44:53;100651.84;;;22.51;63.60
15750;BME280;7976;52.526;13.326;2022-09-09T12:47:29;100646.22;;;22.44;64.49
15750;BME280;7976;52.526;13.326;2022-09-09T12:50:00;100644.53;;;22.43;64.04
15750;BME280;7976;52.526;13.326;2022-09-09T12:52:32;100645.25;;;22.45;64.17
15750;BME280;7976;52.526;13.326;2022-09-09T12:55:04;100646.09;;;22.46;64.81
15750;BME280;7976;52.526;13.326;2022-09-09T12:57:36;100651.41;;;22.46;64.31
15750;BME280;7976;52.526;13.326;2022-09-09T13:00:11;100651.56;;;22.44;63.68
15750;BME280;7976;52.526;13.326;2022-09-09T13:02:51;100658.97;;;22.40;62.30
15750;BME280;7976;52.526;13.326;2022-09-09T13:05:22;100662.78;;;22.38;62.26
15750;BME280;7976;52.526;13.326;2022-09-09T13:07:50;100671.19;;;22.33;62.12
15750;BME280;7976;52.526;13.326;2022-09-09T13:10:25;100665.13;;;22.31;62.02
15750;BME280;7976;52.526;13.326;2022-09-09T13:12:54;100659.34;;;22.26;61.97
15750;BME280;7976;52.526;13.326;2022-09-09T13:15:27;100665.09;;;22.22;61.77
15750;BME280;7976;52.526;13.326;2022-09-09T13:17:57;100664.25;;;22.21;62.28
15750;BME280;7976;52.526;13.326;2022-09-09T13:20:27;100668.88;;;22.19;62.16
15750;BME280;7976;52.526;13.326;2022-09-09T13:22:55;100664.91;;;22.14;62.05
15750;BME280;7976;52.526;13.326;2022-09-09T13:25:26;100658.03;;;22.11;62.71
15750;BME280;7976;52.526;13.326;2022-09-09T13:28:01;100656.31;;;22.10;62.83
15750;BME280;7976;52.526;13.326;2022-09-09T13:30:31;100645.91;;;22.07;62.81
15750;BME280;7976;52.526;13.326;2022-09-09T13:33:21;100643.25;;;22.07;62.90
15750;BME280;7976;52.526;13.326;2022-09-09T13:35:54;100641.72;;;22.05;63.51